Paul — V2GQ7 — position and weather

sailwx.info

Track history (hours):
 
Tides and Currents Weather Stations Pressure Air Temp Water Temp Dewpoint Dewpoint Depression Visibility Wind Speed Wind Dir Waves Ship Positions

Paul

Last reported at 2018-Feb-05 20:46 UTC. Time now 2018-Feb-22 13:00 UTC.
Position N 40°58' E 029°00'.
Warning: this ship's position is 16 days out of date.

Length 83 m; draft 5 m.

Type: Cargo ship. MMSI: 304052000.

Date/timePositionNaut miles runAvg speedWind from/ knotsBaromVisibWave heightAir tempDewpointWater temp
2018-Feb-05 20:46N 40°58' E 029°00'2 7.3
2018-Feb-05 20:28N 40°56' E 028°59'3 7.0
2018-Feb-05 19:59N 40°54' E 028°56'249 7.7
2018-Feb-04 11:37N 38°59' E 024°07'  
2018-Jan-31 02:06N 37°39' E 023°47'111.2
2018-Jan-31 01:59N 37°39' E 023°45'510.1
2018-Jan-31 01:29N 37°43' E 023°41'511.5
2018-Jan-31 01:01N 37°47' E 023°37'1111.0
2018-Jan-31 00:00N 37°51' E 023°24'611.5
2018-Jan-30 23:30N 37°52' E 023°17'611.5
2018-Jan-30 23:01N 37°53' E 023°10'611.4
2018-Jan-30 22:31N 37°54' E 023°03'4 4.0
2018-Jan-30 21:27N 37°57' E 022°58'1 2.7
2018-Jan-30 21:01N 37°58' E 022°57'1 1.9
2018-Jan-30 20:31N 37°57' E 022°56'1 1.2
2018-Jan-30 20:00N 37°57' E 022°56'0 0.0
2018-Jan-30 19:26N 37°57' E 022°56'0 0.0
2018-Jan-30 18:56N 37°57' E 022°56'0 0.0
2018-Jan-30 18:26N 37°57' E 022°56'0 0.0
2018-Jan-30 17:56N 37°57' E 022°56'0 0.0
2018-Jan-30 17:26N 37°57' E 022°56'0 0.0
2018-Jan-30 16:56N 37°57' E 022°56'0 0.0
2018-Jan-30 16:26N 37°57' E 022°56'0 0.0
2018-Jan-30 15:56N 37°57' E 022°56'0 0.0
2018-Jan-30 15:26N 37°57' E 022°56'0 0.0
2018-Jan-30 14:56N 37°57' E 022°56'0 0.0
2018-Jan-30 14:29N 37°57' E 022°56'0 0.0
2018-Jan-30 13:26N 37°57' E 022°56'0 0.0
2018-Jan-30 12:56N 37°57' E 022°56'0 0.0
2018-Jan-30 12:20N 37°57' E 022°56'0 0.0
2018-Jan-30 11:56N 37°57' E 022°56'0 0.0
2018-Jan-30 11:26N 37°57' E 022°56'0 0.0
2018-Jan-30 10:20N 37°57' E 022°56'0 0.0
2018-Jan-30 09:26N 37°57' E 022°56'0 0.0
2018-Jan-30 08:59N 37°57' E 022°56'0 0.0
2018-Jan-30 08:26N 37°57' E 022°56'0 0.0
2018-Jan-30 07:44N 37°57' E 022°56'0 0.0
2018-Jan-30 07:26N 37°57' E 022°56'0 0.0
2018-Jan-30 06:56N 37°57' E 022°56'0 0.0
2018-Jan-30 06:26N 37°57' E 022°56'0 0.0
2018-Jan-30 05:56N 37°57' E 022°56'0 0.0
2018-Jan-30 05:26N 37°57' E 022°56'0 0.0
2018-Jan-30 04:56N 37°57' E 022°56'0 0.0
2018-Jan-30 04:26N 37°57' E 022°56'0 0.0
2018-Jan-30 03:56N 37°57' E 022°56'0 0.0
2018-Jan-30 03:26N 37°57' E 022°56'0 0.0
2018-Jan-30 02:56N 37°57' E 022°56'0 0.0
2018-Jan-30 02:26N 37°57' E 022°56'0 0.0
2018-Jan-30 01:56N 37°57' E 022°56'0 0.0
2018-Jan-30 01:26N 37°57' E 022°56'0 0.0
2018-Jan-30 00:56N 37°57' E 022°56'0 0.0
2018-Jan-30 00:26N 37°57' E 022°56'0 0.0
2018-Jan-29 23:56N 37°57' E 022°56'0 0.0
2018-Jan-29 23:20N 37°57' E 022°56'0 0.0
2018-Jan-29 22:56N 37°57' E 022°56'0 0.0
2018-Jan-29 22:26N 37°57' E 022°56'0 0.0
2018-Jan-29 21:56N 37°57' E 022°56'0 0.0
2018-Jan-29 21:26N 37°57' E 022°56'0 0.0
2018-Jan-29 20:56N 37°57' E 022°56'0 0.0
2018-Jan-29 20:26N 37°57' E 022°56'0 0.0
2018-Jan-29 19:56N 37°57' E 022°56'0 0.0
2018-Jan-29 19:26N 37°57' E 022°56'0 0.0
2018-Jan-29 18:56N 37°57' E 022°56'0 0.0
2018-Jan-29 18:26N 37°57' E 022°56'0 0.0
2018-Jan-29 17:56N 37°57' E 022°56'0 0.0
2018-Jan-29 17:26N 37°57' E 022°56'0 0.0
2018-Jan-29 16:56N 37°57' E 022°56'0 0.0
2018-Jan-29 16:26N 37°57' E 022°56'0 0.0
2018-Jan-29 15:59N 37°57' E 022°56'0 0.0
2018-Jan-29 15:26N 37°57' E 022°56'0 0.0
2018-Jan-29 14:56N 37°57' E 022°56'0 0.0
2018-Jan-29 14:26N 37°57' E 022°56'0 0.0
2018-Jan-29 13:59N 37°57' E 022°56'0 0.0
2018-Jan-29 13:26N 37°57' E 022°56'0 0.0
2018-Jan-29 12:59N 37°57' E 022°56'0 0.0
2018-Jan-29 12:29N 37°57' E 022°56'0 0.0
2018-Jan-29 11:59N 37°57' E 022°56'0 0.0
2018-Jan-29 11:26N 37°57' E 022°56'0 0.0
2018-Jan-29 10:59N 37°57' E 022°56'0 0.0
2018-Jan-29 10:26N 37°57' E 022°56'0 0.0
2018-Jan-29 09:59N 37°57' E 022°56'0 0.0
2018-Jan-29 09:29N 37°57' E 022°56'0 0.0
2018-Jan-29 08:59N 37°57' E 022°56'0 0.0
2018-Jan-29 08:26N 37°57' E 022°56'0 0.0
2018-Jan-29 07:56N 37°57' E 022°56'0 0.0
2018-Jan-29 07:26N 37°57' E 022°56'0 0.0
2018-Jan-29 06:59N 37°57' E 022°56'0 0.0
2018-Jan-29 06:26N 37°57' E 022°56'0 0.0
2018-Jan-29 05:59N 37°57' E 022°56'0 0.0
2018-Jan-29 05:29N 37°57' E 022°56'0 0.0
2018-Jan-29 04:56N 37°57' E 022°56'0 0.0
2018-Jan-29 04:26N 37°57' E 022°56'0 0.0
2018-Jan-29 03:56N 37°57' E 022°56'0 0.0
2018-Jan-29 03:29N 37°57' E 022°56'0 0.0
2018-Jan-29 02:56N 37°57' E 022°56'0 0.0
2018-Jan-29 02:26N 37°57' E 022°56'0 0.0
2018-Jan-29 01:56N 37°57' E 022°56'0 0.0
2018-Jan-29 01:29N 37°57' E 022°56'0 0.0
2018-Jan-29 00:56N 37°57' E 022°56'0 0.0
2018-Jan-29 00:29N 37°57' E 022°56'0 0.0
2018-Jan-28 23:56N 37°57' E 022°56'0 0.0
2018-Jan-28 23:26N 37°57' E 022°56'0 0.0
2018-Jan-28 22:56N 37°57' E 022°56'0 0.0
2018-Jan-28 22:26N 37°57' E 022°56'0 0.0
2018-Jan-28 21:59N 37°57' E 022°56'0 0.0
2018-Jan-28 21:23N 37°57' E 022°56'0 0.0
2018-Jan-28 20:59N 37°57' E 022°56'0 0.0
2018-Jan-28 20:26N 37°57' E 022°56'0 0.0
2018-Jan-28 19:56N 37°57' E 022°56'0 0.0
2018-Jan-28 19:20N 37°57' E 022°56'0 0.0
2018-Jan-28 18:59N 37°57' E 022°56'0 0.0
2018-Jan-28 18:26N 37°57' E 022°56'0 0.0
2018-Jan-28 17:56N 37°57' E 022°56'0 0.0
2018-Jan-28 17:26N 37°57' E 022°56'0 0.0
2018-Jan-28 16:56N 37°57' E 022°56'0 0.0
2018-Jan-28 16:29N 37°57' E 022°56'0 0.0
2018-Jan-28 15:59N 37°57' E 022°56'0 0.0
2018-Jan-28 15:31N 37°57' E 022°56'0 0.8
2018-Jan-28 15:01N 37°57' E 022°56'5 9.7
2018-Jan-28 14:30N 37°60' E 022°51'40410.4
2018-Jan-26 23:32N 36°30' E 014°36'010.7
2018-Jan-26 23:30N 36°30' E 014°35'510.8
2018-Jan-26 23:00N 36°31' E 014°29'  
Track history (hours):
 
Tides and Currents Weather Stations Pressure Air Temp Water Temp Dewpoint Dewpoint Depression Visibility Wind Speed Wind Dir Waves Ship Positions

Paul

Last reported at 2018-Feb-05 20:46 UTC. Time now 2018-Feb-22 13:00 UTC.
Position N 40°58' E 029°00'.
Warning: this ship's position is 16 days out of date.

Length 83 m; draft 5 m.

Type: Cargo ship. MMSI: 304052000.

Date/timePositionNaut miles runAvg speedWind from/ knotsBaromVisibWave heightAir tempDewpointWater temp
2018-Feb-05 20:46N 40°58' E 029°00'2 7.3
2018-Feb-05 20:28N 40°56' E 028°59'3 7.0
2018-Feb-05 19:59N 40°54' E 028°56'249 7.7
2018-Feb-04 11:37N 38°59' E 024°07'  
2018-Jan-31 02:06N 37°39' E 023°47'111.2
2018-Jan-31 01:59N 37°39' E 023°45'510.1
2018-Jan-31 01:29N 37°43' E 023°41'511.5
2018-Jan-31 01:01N 37°47' E 023°37'1111.0
2018-Jan-31 00:00N 37°51' E 023°24'611.5
2018-Jan-30 23:30N 37°52' E 023°17'611.5
2018-Jan-30 23:01N 37°53' E 023°10'611.4
2018-Jan-30 22:31N 37°54' E 023°03'4 4.0
2018-Jan-30 21:27N 37°57' E 022°58'1 2.7
2018-Jan-30 21:01N 37°58' E 022°57'1 1.9
2018-Jan-30 20:31N 37°57' E 022°56'1 1.2
2018-Jan-30 20:00N 37°57' E 022°56'0 0.0
2018-Jan-30 19:26N 37°57' E 022°56'0 0.0
2018-Jan-30 18:56N 37°57' E 022°56'0 0.0
2018-Jan-30 18:26N 37°57' E 022°56'0 0.0
2018-Jan-30 17:56N 37°57' E 022°56'0 0.0
2018-Jan-30 17:26N 37°57' E 022°56'0 0.0
2018-Jan-30 16:56N 37°57' E 022°56'0 0.0
2018-Jan-30 16:26N 37°57' E 022°56'0 0.0
2018-Jan-30 15:56N 37°57' E 022°56'0 0.0
2018-Jan-30 15:26N 37°57' E 022°56'0 0.0
2018-Jan-30 14:56N 37°57' E 022°56'0 0.0
2018-Jan-30 14:29N 37°57' E 022°56'0 0.0
2018-Jan-30 13:26N 37°57' E 022°56'0 0.0
2018-Jan-30 12:56N 37°57' E 022°56'0 0.0
2018-Jan-30 12:20N 37°57' E 022°56'0 0.0
2018-Jan-30 11:56N 37°57' E 022°56'0 0.0
2018-Jan-30 11:26N 37°57' E 022°56'0 0.0
2018-Jan-30 10:20N 37°57' E 022°56'0 0.0
2018-Jan-30 09:26N 37°57' E 022°56'0 0.0
2018-Jan-30 08:59N 37°57' E 022°56'0 0.0
2018-Jan-30 08:26N 37°57' E 022°56'0 0.0
2018-Jan-30 07:44N 37°57' E 022°56'0 0.0
2018-Jan-30 07:26N 37°57' E 022°56'0 0.0
2018-Jan-30 06:56N 37°57' E 022°56'0 0.0
2018-Jan-30 06:26N 37°57' E 022°56'0 0.0
2018-Jan-30 05:56N 37°57' E 022°56'0 0.0
2018-Jan-30 05:26N 37°57' E 022°56'0 0.0
2018-Jan-30 04:56N 37°57' E 022°56'0 0.0
2018-Jan-30 04:26N 37°57' E 022°56'0 0.0
2018-Jan-30 03:56N 37°57' E 022°56'0 0.0
2018-Jan-30 03:26N 37°57' E 022°56'0 0.0
2018-Jan-30 02:56N 37°57' E 022°56'0 0.0
2018-Jan-30 02:26N 37°57' E 022°56'0 0.0
2018-Jan-30 01:56N 37°57' E 022°56'0 0.0
2018-Jan-30 01:26N 37°57' E 022°56'0 0.0
2018-Jan-30 00:56N 37°57' E 022°56'0 0.0
2018-Jan-30 00:26N 37°57' E 022°56'0 0.0
2018-Jan-29 23:56N 37°57' E 022°56'0 0.0
2018-Jan-29 23:20N 37°57' E 022°56'0 0.0
2018-Jan-29 22:56N 37°57' E 022°56'0 0.0
2018-Jan-29 22:26N 37°57' E 022°56'0 0.0
2018-Jan-29 21:56N 37°57' E 022°56'0 0.0
2018-Jan-29 21:26N 37°57' E 022°56'0 0.0
2018-Jan-29 20:56N 37°57' E 022°56'0 0.0
2018-Jan-29 20:26N 37°57' E 022°56'0 0.0
2018-Jan-29 19:56N 37°57' E 022°56'0 0.0
2018-Jan-29 19:26N 37°57' E 022°56'0 0.0
2018-Jan-29 18:56N 37°57' E 022°56'0 0.0
2018-Jan-29 18:26N 37°57' E 022°56'0 0.0
2018-Jan-29 17:56N 37°57' E 022°56'0 0.0
2018-Jan-29 17:26N 37°57' E 022°56'0 0.0
2018-Jan-29 16:56N 37°57' E 022°56'0 0.0
2018-Jan-29 16:26N 37°57' E 022°56'0 0.0
2018-Jan-29 15:59N 37°57' E 022°56'0 0.0
2018-Jan-29 15:26N 37°57' E 022°56'0 0.0
2018-Jan-29 14:56N 37°57' E 022°56'0 0.0
2018-Jan-29 14:26N 37°57' E 022°56'0 0.0
2018-Jan-29 13:59N 37°57' E 022°56'0 0.0
2018-Jan-29 13:26N 37°57' E 022°56'0 0.0
2018-Jan-29 12:59N 37°57' E 022°56'0 0.0
2018-Jan-29 12:29N 37°57' E 022°56'0 0.0
2018-Jan-29 11:59N 37°57' E 022°56'0 0.0
2018-Jan-29 11:26N 37°57' E 022°56'0 0.0
2018-Jan-29 10:59N 37°57' E 022°56'0 0.0
2018-Jan-29 10:26N 37°57' E 022°56'0 0.0
2018-Jan-29 09:59N 37°57' E 022°56'0 0.0
2018-Jan-29 09:29N 37°57' E 022°56'0 0.0
2018-Jan-29 08:59N 37°57' E 022°56'0 0.0
2018-Jan-29 08:26N 37°57' E 022°56'0 0.0
2018-Jan-29 07:56N 37°57' E 022°56'0 0.0
2018-Jan-29 07:26N 37°57' E 022°56'0 0.0
2018-Jan-29 06:59N 37°57' E 022°56'0 0.0
2018-Jan-29 06:26N 37°57' E 022°56'0 0.0
2018-Jan-29 05:59N 37°57' E 022°56'0 0.0
2018-Jan-29 05:29N 37°57' E 022°56'0 0.0
2018-Jan-29 04:56N 37°57' E 022°56'0 0.0
2018-Jan-29 04:26N 37°57' E 022°56'0 0.0
2018-Jan-29 03:56N 37°57' E 022°56'0 0.0
2018-Jan-29 03:29N 37°57' E 022°56'0 0.0
2018-Jan-29 02:56N 37°57' E 022°56'0 0.0
2018-Jan-29 02:26N 37°57' E 022°56'0 0.0
2018-Jan-29 01:56N 37°57' E 022°56'0 0.0
2018-Jan-29 01:29N 37°57' E 022°56'0 0.0
2018-Jan-29 00:56N 37°57' E 022°56'0 0.0
2018-Jan-29 00:29N 37°57' E 022°56'0 0.0
2018-Jan-28 23:56N 37°57' E 022°56'0 0.0
2018-Jan-28 23:26N 37°57' E 022°56'0 0.0
2018-Jan-28 22:56N 37°57' E 022°56'0 0.0
2018-Jan-28 22:26N 37°57' E 022°56'0 0.0
2018-Jan-28 21:59N 37°57' E 022°56'0 0.0
2018-Jan-28 21:23N 37°57' E 022°56'0 0.0
2018-Jan-28 20:59N 37°57' E 022°56'0 0.0
2018-Jan-28 20:26N 37°57' E 022°56'0 0.0
2018-Jan-28 19:56N 37°57' E 022°56'0 0.0
2018-Jan-28 19:20N 37°57' E 022°56'0 0.0
2018-Jan-28 18:59N 37°57' E 022°56'0 0.0
2018-Jan-28 18:26N 37°57' E 022°56'0 0.0
2018-Jan-28 17:56N 37°57' E 022°56'0 0.0
2018-Jan-28 17:26N 37°57' E 022°56'0 0.0
2018-Jan-28 16:56N 37°57' E 022°56'0 0.0
2018-Jan-28 16:29N 37°57' E 022°56'0 0.0
2018-Jan-28 15:59N 37°57' E 022°56'0 0.0
2018-Jan-28 15:31N 37°57' E 022°56'0 0.8
2018-Jan-28 15:01N 37°57' E 022°56'5 9.7
2018-Jan-28 14:30N 37°60' E 022°51'40410.4
2018-Jan-26 23:32N 36°30' E 014°36'010.7
2018-Jan-26 23:30N 36°30' E 014°35'510.8
2018-Jan-26 23:00N 36°31' E 014°29'  

Dump ship's entire track history